sensor_id;sensor_type;location;lat;lon;timestamp;temperature;humidity
14409;DHT22;7289;50.706;4.992;2023-02-15T00:00:15;0.70;99.90
14409;DHT22;7289;50.706;4.992;2023-02-15T00:02:43;0.70;99.90
14409;DHT22;7289;50.706;4.992;2023-02-15T00:05:11;0.60;99.90
14409;DHT22;7289;50.706;4.992;2023-02-15T00:07:40;0.60;99.90
14409;DHT22;7289;50.706;4.992;2023-02-15T00:10:08;0.60;99.90
14409;DHT22;7289;50.706;4.992;2023-02-15T00:12:38;0.60;99.90
14409;DHT22;7289;50.706;4.992;2023-02-15T00:15:08;0.60;99.90
14409;DHT22;7289;50.706;4.992;2023-02-15T00:17:38;0.50;99.90
14409;DHT22;7289;50.706;4.992;2023-02-15T00:20:07;0.50;99.90
14409;DHT22;7289;50.706;4.992;2023-02-15T00:22:36;0.50;99.90
14409;DHT22;7289;50.706;4.992;2023-02-15T00:25:04;0.50;99.90
14409;DHT22;7289;50.706;4.992;2023-02-15T00:27:33;0.50;99.90
14409;DHT22;7289;50.706;4.992;2023-02-15T00:30:02;0.50;99.90
14409;DHT22;7289;50.706;4.992;2023-02-15T00:32:32;0.50;99.90
14409;DHT22;7289;50.706;4.992;2023-02-15T00:35:01;0.40;99.90
14409;DHT22;7289;50.706;4.992;2023-02-15T00:37:29;0.40;99.90
14409;DHT22;7289;50.706;4.992;2023-02-15T00:39:58;0.40;99.90
14409;DHT22;7289;50.706;4.992;2023-02-15T00:42:26;0.50;99.90
14409;DHT22;7289;50.706;4.992;2023-02-15T00:44:54;0.50;99.90
14409;DHT22;7289;50.706;4.992;2023-02-15T00:47:23;0.40;99.90
14409;DHT22;7289;50.706;4.992;2023-02-15T00:49:53;0.40;99.90
14409;DHT22;7289;50.706;4.992;2023-02-15T00:52:21;0.40;99.90
14409;DHT22;7289;50.706;4.992;2023-02-15T00:54:50;0.30;99.90
14409;DHT22;7289;50.706;4.992;2023-02-15T00:57:18;0.30;99.90
14409;DHT22;7289;50.706;4.992;2023-02-15T00:59:46;0.30;99.90
14409;DHT22;7289;50.706;4.992;2023-02-15T01:02:15;0.30;99.90
14409;DHT22;7289;50.706;4.992;2023-02-15T01:04:43;0.30;99.90
14409;DHT22;7289;50.706;4.992;2023-02-15T01:07:13;0.30;99.90
14409;DHT22;7289;50.706;4.992;2023-02-15T01:09:41;0.30;99.90
14409;DHT22;7289;50.706;4.992;2023-02-15T01:12:10;0.30;99.90
14409;DHT22;7289;50.706;4.992;2023-02-15T01:14:38;0.30;99.90
14409;DHT22;7289;50.706;4.992;2023-02-15T01:17:07;0.30;99.90
14409;DHT22;7289;50.706;4.992;2023-02-15T01:19:35;0.30;99.90
14409;DHT22;7289;50.706;4.992;2023-02-15T01:22:06;0.20;99.90
14409;DHT22;7289;50.706;4.992;2023-02-15T01:24:36;0.30;99.90
14409;DHT22;7289;50.706;4.992;2023-02-15T01:27:04;0.20;99.90
14409;DHT22;7289;50.706;4.992;2023-02-15T01:29:33;0.30;99.90
14409;DHT22;7289;50.706;4.992;2023-02-15T01:32:01;0.20;99.90
14409;DHT22;7289;50.706;4.992;2023-02-15T01:34:30;0.20;99.90
14409;DHT22;7289;50.706;4.992;2023-02-15T01:36:58;0.20;99.90
14409;DHT22;7289;50.706;4.992;2023-02-15T01:39:26;0.10;99.90
14409;DHT22;7289;50.706;4.992;2023-02-15T01:41:57;0.10;99.90
14409;DHT22;7289;50.706;4.992;2023-02-15T01:44:56;0.10;99.90
14409;DHT22;7289;50.706;4.992;2023-02-15T01:47:32;0.10;99.90
14409;DHT22;7289;50.706;4.992;2023-02-15T01:50:08;0.10;99.90
14409;DHT22;7289;50.706;4.992;2023-02-15T01:52:41;0.10;99.90
14409;DHT22;7289;50.706;4.992;2023-02-15T01:55:11;0.10;99.90
14409;DHT22;7289;50.706;4.992;2023-02-15T01:57:43;0.10;99.90
14409;DHT22;7289;50.706;4.992;2023-02-15T02:00:14;0.00;99.90
14409;DHT22;7289;50.706;4.992;2023-02-15T02:02:48;0.00;99.90
14409;DHT22;7289;50.706;4.992;2023-02-15T02:05:18;-0.10;99.90
14409;DHT22;7289;50.706;4.992;2023-02-15T02:07:48;0.00;99.90
14409;DHT22;7289;50.706;4.992;2023-02-15T02:10:20;0.00;99.90
14409;DHT22;7289;50.706;4.992;2023-02-15T02:12:54;0.00;99.90
14409;DHT22;7289;50.706;4.992;2023-02-15T02:15:28;0.00;99.90
14409;DHT22;7289;50.706;4.992;2023-02-15T02:18:12;0.00;99.90
14409;DHT22;7289;50.706;4.992;2023-02-15T02:23:44;0.00;99.90
14409;DHT22;7289;50.706;4.992;2023-02-15T02:35:56;-0.10;99.90
14409;DHT22;7289;50.706;4.992;2023-02-15T02:38:37;-0.10;99.90
14409;DHT22;7289;50.706;4.992;2023-02-15T02:41:17;-0.10;99.90
14409;DHT22;7289;50.706;4.992;2023-02-15T02:43:50;-0.20;99.90
14409;DHT22;7289;50.706;4.992;2023-02-15T02:46:25;-0.20;99.90
14409;DHT22;7289;50.706;4.992;2023-02-15T02:48:56;-0.20;99.90
14409;DHT22;7289;50.706;4.992;2023-02-15T02:51:26;-0.30;99.90
14409;DHT22;7289;50.706;4.992;2023-02-15T02:53:57;-0.30;99.90
14409;DHT22;7289;50.706;4.992;2023-02-15T02:56:29;-0.30;99.90
14409;DHT22;7289;50.706;4.992;2023-02-15T02:59:01;-0.30;99.90
14409;DHT22;7289;50.706;4.992;2023-02-15T03:01:36;-0.30;99.90
14409;DHT22;7289;50.706;4.992;2023-02-15T03:04:10;-0.30;99.90
14409;DHT22;7289;50.706;4.992;2023-02-15T03:06:46;-0.30;99.90
14409;DHT22;7289;50.706;4.992;2023-02-15T03:09:23;-0.40;99.90
14409;DHT22;7289;50.706;4.992;2023-02-15T03:11:52;-0.30;99.90
14409;DHT22;7289;50.706;4.992;2023-02-15T03:14:21;-0.40;99.90
14409;DHT22;7289;50.706;4.992;2023-02-15T03:16:51;-0.40;99.90
14409;DHT22;7289;50.706;4.992;2023-02-15T03:19:23;-0.50;99.90
14409;DHT22;7289;50.706;4.992;2023-02-15T03:21:56;-0.50;99.90
14409;DHT22;7289;50.706;4.992;2023-02-15T03:24:39;-0.50;99.90
14409;DHT22;7289;50.706;4.992;2023-02-15T03:27:13;-0.50;99.90
14409;DHT22;7289;50.706;4.992;2023-02-15T03:29:47;-0.50;99.90
14409;DHT22;7289;50.706;4.992;2023-02-15T03:32:17;-0.50;99.90
14409;DHT22;7289;50.706;4.992;2023-02-15T03:34:46;-0.50;99.90
14409;DHT22;7289;50.706;4.992;2023-02-15T03:37:23;-0.50;99.90
14409;DHT22;7289;50.706;4.992;2023-02-15T03:39:56;-0.60;99.90
14409;DHT22;7289;50.706;4.992;2023-02-15T03:42:50;-0.60;99.90
14409;DHT22;7289;50.706;4.992;2023-02-15T03:45:24;-0.60;99.90
14409;DHT22;7289;50.706;4.992;2023-02-15T03:47:54;-0.60;99.90
14409;DHT22;7289;50.706;4.992;2023-02-15T03:50:26;-0.70;99.90
14409;DHT22;7289;50.706;4.992;2023-02-15T03:53:18;-0.70;99.90
14409;DHT22;7289;50.706;4.992;2023-02-15T03:55:49;-0.70;99.90
14409;DHT22;7289;50.706;4.992;2023-02-15T03:58:21;-0.70;99.90
14409;DHT22;7289;50.706;4.992;2023-02-15T04:01:13;-0.70;99.90
14409;DHT22;7289;50.706;4.992;2023-02-15T04:04:05;-0.70;99.90
14409;DHT22;7289;50.706;4.992;2023-02-15T04:06:35;-0.70;99.90
14409;DHT22;7289;50.706;4.992;2023-02-15T04:09:05;-0.80;99.90
14409;DHT22;7289;50.706;4.992;2023-02-15T04:11:51;-0.80;99.90
14409;DHT22;7289;50.706;4.992;2023-02-15T04:14:19;-0.80;99.90
14409;DHT22;7289;50.706;4.992;2023-02-15T04:17:05;-0.70;99.90
14409;DHT22;7289;50.706;4.992;2023-02-15T04:19:34;-0.70;99.90
14409;DHT22;7289;50.706;4.992;2023-02-15T04:22:20;-0.70;99.90
14409;DHT22;7289;50.706;4.992;2023-02-15T04:25:07;-0.70;99.90
14409;DHT22;7289;50.706;4.992;2023-02-15T04:27:41;-0.70;99.90
14409;DHT22;7289;50.706;4.992;2023-02-15T04:30:11;-0.80;99.90
14409;DHT22;7289;50.706;4.992;2023-02-15T04:32:40;-0.80;99.90
14409;DHT22;7289;50.706;4.992;2023-02-15T04:35:08;-0.90;99.90
14409;DHT22;7289;50.706;4.992;2023-02-15T04:37:37;-0.80;99.90
14409;DHT22;7289;50.706;4.992;2023-02-15T04:40:08;-0.90;99.90
14409;DHT22;7289;50.706;4.992;2023-02-15T04:42:37;-0.80;99.90
14409;DHT22;7289;50.706;4.992;2023-02-15T04:45:06;-0.90;99.90
14409;DHT22;7289;50.706;4.992;2023-02-15T04:47:35;-0.90;99.90
14409;DHT22;7289;50.706;4.992;2023-02-15T04:50:04;-0.90;99.90
14409;DHT22;7289;50.706;4.992;2023-02-15T04:52:33;-0.90;99.90
14409;DHT22;7289;50.706;4.992;2023-02-15T04:55:01;-0.90;99.90
14409;DHT22;7289;50.706;4.992;2023-02-15T04:57:31;-0.90;99.90
14409;DHT22;7289;50.706;4.992;2023-02-15T04:59:59;-0.90;99.90
14409;DHT22;7289;50.706;4.992;2023-02-15T05:02:28;-0.90;99.90
14409;DHT22;7289;50.706;4.992;2023-02-15T05:04:57;-0.80;99.90
14409;DHT22;7289;50.706;4.992;2023-02-15T05:07:25;-1.00;99.90
14409;DHT22;7289;50.706;4.992;2023-02-15T05:09:53;-1.00;99.90
14409;DHT22;7289;50.706;4.992;2023-02-15T05:12:21;-1.00;99.90
14409;DHT22;7289;50.706;4.992;2023-02-15T05:14:51;-1.00;99.90
14409;DHT22;7289;50.706;4.992;2023-02-15T05:17:19;-1.00;99.90
14409;DHT22;7289;50.706;4.992;2023-02-15T05:19:48;-1.00;99.90
14409;DHT22;7289;50.706;4.992;2023-02-15T05:22:16;-1.00;99.90
14409;DHT22;7289;50.706;4.992;2023-02-15T05:24:44;-1.00;99.90
14409;DHT22;7289;50.706;4.992;2023-02-15T05:27:30;-1.10;99.90
14409;DHT22;7289;50.706;4.992;2023-02-15T05:30:17;-1.10;99.90
14409;DHT22;7289;50.706;4.992;2023-02-15T05:32:46;-1.10;99.90
14409;DHT22;7289;50.706;4.992;2023-02-15T05:35:15;-1.10;99.90
14409;DHT22;7289;50.706;4.992;2023-02-15T05:37:43;-1.10;99.90
14409;DHT22;7289;50.706;4.992;2023-02-15T05:40:12;-1.10;99.90
14409;DHT22;7289;50.706;4.992;2023-02-15T05:42:40;-1.10;99.90
14409;DHT22;7289;50.706;4.992;2023-02-15T05:45:09;-1.10;99.90
14409;DHT22;7289;50.706;4.992;2023-02-15T05:47:38;-1.20;99.90
14409;DHT22;7289;50.706;4.992;2023-02-15T05:50:08;-1.20;99.90
14409;DHT22;7289;50.706;4.992;2023-02-15T05:52:37;-1.20;99.90
14409;DHT22;7289;50.706;4.992;2023-02-15T05:55:06;-1.10;99.90
14409;DHT22;7289;50.706;4.992;2023-02-15T05:57:35;-1.20;99.90
14409;DHT22;7289;50.706;4.992;2023-02-15T06:00:05;-1.20;99.90
14409;DHT22;7289;50.706;4.992;2023-02-15T06:02:40;-1.20;99.90
14409;DHT22;7289;50.706;4.992;2023-02-15T06:05:09;-1.20;99.90
14409;DHT22;7289;50.706;4.992;2023-02-15T06:07:37;-1.30;99.90
14409;DHT22;7289;50.706;4.992;2023-02-15T06:10:07;-1.30;99.90
14409;DHT22;7289;50.706;4.992;2023-02-15T06:12:35;-1.30;99.90
14409;DHT22;7289;50.706;4.992;2023-02-15T06:15:04;-1.20;99.90
14409;DHT22;7289;50.706;4.992;2023-02-15T06:17:33;-1.20;99.90
14409;DHT22;7289;50.706;4.992;2023-02-15T06:20:03;-1.20;99.90
14409;DHT22;7289;50.706;4.992;2023-02-15T06:22:32;-1.30;99.90
14409;DHT22;7289;50.706;4.992;2023-02-15T06:25:01;-1.10;99.90
14409;DHT22;7289;50.706;4.992;2023-02-15T06:27:30;-1.10;99.90
14409;DHT22;7289;50.706;4.992;2023-02-15T06:29:58;-1.10;99.90
14409;DHT22;7289;50.706;4.992;2023-02-15T06:32:27;-1.20;99.90
14409;DHT22;7289;50.706;4.992;2023-02-15T06:34:55;-1.20;99.90
14409;DHT22;7289;50.706;4.992;2023-02-15T06:37:25;-1.20;99.90
14409;DHT22;7289;50.706;4.992;2023-02-15T06:39:53;-1.30;99.90
14409;DHT22;7289;50.706;4.992;2023-02-15T06:42:22;-1.30;99.90
14409;DHT22;7289;50.706;4.992;2023-02-15T06:44:50;-1.30;99.90
14409;DHT22;7289;50.706;4.992;2023-02-15T06:47:18;-1.30;99.90
14409;DHT22;7289;50.706;4.992;2023-02-15T06:49:47;-1.30;99.90
14409;DHT22;7289;50.706;4.992;2023-02-15T06:52:15;-1.20;99.90
14409;DHT22;7289;50.706;4.992;2023-02-15T06:54:45;-1.10;99.90
14409;DHT22;7289;50.706;4.992;2023-02-15T06:57:13;-1.10;99.90
14409;DHT22;7289;50.706;4.992;2023-02-15T06:59:42;-1.00;99.90
14409;DHT22;7289;50.706;4.992;2023-02-15T07:02:11;-1.00;99.90
14409;DHT22;7289;50.706;4.992;2023-02-15T07:04:40;-0.90;99.90
14409;DHT22;7289;50.706;4.992;2023-02-15T07:07:09;-0.80;99.90
14409;DHT22;7289;50.706;4.992;2023-02-15T07:09:38;-0.80;99.90
14409;DHT22;7289;50.706;4.992;2023-02-15T07:12:09;-0.80;99.90
14409;DHT22;7289;50.706;4.992;2023-02-15T07:14:55;-0.80;99.90
14409;DHT22;7289;50.706;4.992;2023-02-15T07:17:25;-0.70;99.90
14409;DHT22;7289;50.706;4.992;2023-02-15T07:20:04;-0.70;99.90
14409;DHT22;7289;50.706;4.992;2023-02-15T07:22:33;-0.70;99.90
14409;DHT22;7289;50.706;4.992;2023-02-15T07:25:03;-0.60;99.90
14409;DHT22;7289;50.706;4.992;2023-02-15T07:27:33;-0.50;99.90
14409;DHT22;7289;50.706;4.992;2023-02-15T07:30:02;-0.60;99.90
14409;DHT22;7289;50.706;4.992;2023-02-15T07:32:32;-0.50;99.90
14409;DHT22;7289;50.706;4.992;2023-02-15T07:35:01;-0.40;99.90
14409;DHT22;7289;50.706;4.992;2023-02-15T07:37:30;-0.30;99.90
14409;DHT22;7289;50.706;4.992;2023-02-15T07:39:58;-0.20;99.90
14409;DHT22;7289;50.706;4.992;2023-02-15T07:42:26;-0.10;99.90
14409;DHT22;7289;50.706;4.992;2023-02-15T07:44:56;0.00;99.90
14409;DHT22;7289;50.706;4.992;2023-02-15T07:47:26;0.10;99.90
14409;DHT22;7289;50.706;4.992;2023-02-15T07:49:54;0.10;99.90
14409;DHT22;7289;50.706;4.992;2023-02-15T07:52:23;0.20;99.90
14409;DHT22;7289;50.706;4.992;2023-02-15T07:54:51;0.30;99.90
14409;DHT22;7289;50.706;4.992;2023-02-15T07:57:19;0.40;99.90
14409;DHT22;7289;50.706;4.992;2023-02-15T07:59:48;0.50;99.90
14409;DHT22;7289;50.706;4.992;2023-02-15T08:02:17;0.60;99.90
14409;DHT22;7289;50.706;4.992;2023-02-15T08:04:46;0.60;99.90
14409;DHT22;7289;50.706;4.992;2023-02-15T08:07:14;0.70;99.90
14409;DHT22;7289;50.706;4.992;2023-02-15T08:09:42;0.70;99.90
14409;DHT22;7289;50.706;4.992;2023-02-15T08:12:11;0.90;99.90
14409;DHT22;7289;50.706;4.992;2023-02-15T08:14:39;1.00;99.90
14409;DHT22;7289;50.706;4.992;2023-02-15T08:17:07;1.10;99.90
14409;DHT22;7289;50.706;4.992;2023-02-15T08:19:37;1.20;99.90
14409;DHT22;7289;50.706;4.992;2023-02-15T08:22:07;1.30;99.90
14409;DHT22;7289;50.706;4.992;2023-02-15T08:24:37;1.40;99.90
14409;DHT22;7289;50.706;4.992;2023-02-15T08:27:07;1.50;99.90
14409;DHT22;7289;50.706;4.992;2023-02-15T08:29:36;1.60;99.90
14409;DHT22;7289;50.706;4.992;2023-02-15T08:32:08;1.70;99.90
14409;DHT22;7289;50.706;4.992;2023-02-15T08:34:40;1.90;99.90
14409;DHT22;7289;50.706;4.992;2023-02-15T08:37:09;1.90;99.90
14409;DHT22;7289;50.706;4.992;2023-02-15T08:39:37;2.10;99.90
14409;DHT22;7289;50.706;4.992;2023-02-15T08:42:06;2.20;99.90
14409;DHT22;7289;50.706;4.992;2023-02-15T08:44:34;2.40;99.90
14409;DHT22;7289;50.706;4.992;2023-02-15T08:47:02;2.50;99.90
14409;DHT22;7289;50.706;4.992;2023-02-15T08:49:31;2.70;99.90
14409;DHT22;7289;50.706;4.992;2023-02-15T08:52:00;2.90;99.90
14409;DHT22;7289;50.706;4.992;2023-02-15T08:54:29;3.00;99.90
14409;DHT22;7289;50.706;4.992;2023-02-15T08:56:57;3.20;99.90
14409;DHT22;7289;50.706;4.992;2023-02-15T08:59:26;3.40;99.90
14409;DHT22;7289;50.706;4.992;2023-02-15T09:01:54;3.60;99.90
14409;DHT22;7289;50.706;4.992;2023-02-15T09:04:23;3.70;99.90
14409;DHT22;7289;50.706;4.992;2023-02-15T09:06:51;3.90;99.90
14409;DHT22;7289;50.706;4.992;2023-02-15T09:09:21;4.00;99.90
14409;DHT22;7289;50.706;4.992;2023-02-15T09:11:51;4.30;99.90
14409;DHT22;7289;50.706;4.992;2023-02-15T09:14:25;4.40;99.90
14409;DHT22;7289;50.706;4.992;2023-02-15T09:16:54;4.70;99.90
14409;DHT22;7289;50.706;4.992;2023-02-15T09:19:24;4.90;99.90
14409;DHT22;7289;50.706;4.992;2023-02-15T09:21:52;5.10;99.90
14409;DHT22;7289;50.706;4.992;2023-02-15T09:24:22;5.20;99.90
14409;DHT22;7289;50.706;4.992;2023-02-15T09:26:51;5.40;99.90
14409;DHT22;7289;50.706;4.992;2023-02-15T09:29:19;5.60;99.90
14409;DHT22;7289;50.706;4.992;2023-02-15T09:31:50;5.60;99.90
14409;DHT22;7289;50.706;4.992;2023-02-15T09:34:21;5.80;99.90
14409;DHT22;7289;50.706;4.992;2023-02-15T09:36:50;6.00;99.90
14409;DHT22;7289;50.706;4.992;2023-02-15T09:39:20;6.20;99.90
14409;DHT22;7289;50.706;4.992;2023-02-15T09:42:16;6.40;99.90
14409;DHT22;7289;50.706;4.992;2023-02-15T09:48:21;6.80;99.90
14409;DHT22;7289;50.706;4.992;2023-02-15T09:51:01;7.00;99.90
14409;DHT22;7289;50.706;4.992;2023-02-15T09:53:51;7.10;99.90
14409;DHT22;7289;50.706;4.992;2023-02-15T09:56:30;7.30;99.90
14409;DHT22;7289;50.706;4.992;2023-02-15T09:59:11;7.50;99.90
14409;DHT22;7289;50.706;4.992;2023-02-15T10:01:51;7.70;99.90
14409;DHT22;7289;50.706;4.992;2023-02-15T10:04:34;7.90;99.90
14409;DHT22;7289;50.706;4.992;2023-02-15T10:07:17;8.20;99.90
14409;DHT22;7289;50.706;4.992;2023-02-15T10:09:59;8.50;99.90
14409;DHT22;7289;50.706;4.992;2023-02-15T10:12:40;8.80;99.90
14409;DHT22;7289;50.706;4.992;2023-02-15T10:15:33;9.00;99.90
14409;DHT22;7289;50.706;4.992;2023-02-15T10:18:20;9.20;99.90
14409;DHT22;7289;50.706;4.992;2023-02-15T10:20:56;9.30;99.90
14409;DHT22;7289;50.706;4.992;2023-02-15T10:23:40;9.50;99.90
14409;DHT22;7289;50.706;4.992;2023-02-15T10:26:16;9.70;99.90
14409;DHT22;7289;50.706;4.992;2023-02-15T10:28:48;9.80;99.90
14409;DHT22;7289;50.706;4.992;2023-02-15T10:31:28;10.00;99.90
14409;DHT22;7289;50.706;4.992;2023-02-15T10:34:15;10.30;99.90
14409;DHT22;7289;50.706;4.992;2023-02-15T10:37:16;10.50;99.90
14409;DHT22;7289;50.706;4.992;2023-02-15T10:39:53;10.80;99.90
14409;DHT22;7289;50.706;4.992;2023-02-15T10:42:30;10.90;99.40
14409;DHT22;7289;50.706;4.992;2023-02-15T10:45:12;11.00;99.10
14409;DHT22;7289;50.706;4.992;2023-02-15T10:48:00;11.10;99.10
14409;DHT22;7289;50.706;4.992;2023-02-15T10:50:36;11.10;99.30
14409;DHT22;7289;50.706;4.992;2023-02-15T10:53:19;11.20;98.90
14409;DHT22;7289;50.706;4.992;2023-02-15T10:55:56;11.30;98.30
14409;DHT22;7289;50.706;4.992;2023-02-15T10:58:40;11.30;97.90
14409;DHT22;7289;50.706;4.992;2023-02-15T11:01:18;11.30;98.20
14409;DHT22;7289;50.706;4.992;2023-02-15T11:04:14;11.30;98.40
14409;DHT22;7289;50.706;4.992;2023-02-15T11:06:53;11.30;97.60
14409;DHT22;7289;50.706;4.992;2023-02-15T11:09:25;11.40;97.90
14409;DHT22;7289;50.706;4.992;2023-02-15T11:11:57;11.50;97.70
14409;DHT22;7289;50.706;4.992;2023-02-15T11:14:34;11.60;97.80
14409;DHT22;7289;50.706;4.992;2023-02-15T11:17:09;11.80;96.90
14409;DHT22;7289;50.706;4.992;2023-02-15T11:19:45;11.90;97.10
14409;DHT22;7289;50.706;4.992;2023-02-15T11:22:18;11.90;97.10
14409;DHT22;7289;50.706;4.992;2023-02-15T11:24:47;12.00;96.50
14409;DHT22;7289;50.706;4.992;2023-02-15T11:27:20;12.00;96.50
14409;DHT22;7289;50.706;4.992;2023-02-15T11:29:55;12.10;97.00
14409;DHT22;7289;50.706;4.992;2023-02-15T11:32:27;12.20;96.40
14409;DHT22;7289;50.706;4.992;2023-02-15T11:35:00;12.20;97.00
14409;DHT22;7289;50.706;4.992;2023-02-15T11:37:35;12.20;96.50
14409;DHT22;7289;50.706;4.992;2023-02-15T11:40:17;12.20;96.90
14409;DHT22;7289;50.706;4.992;2023-02-15T11:42:48;12.30;97.30
14409;DHT22;7289;50.706;4.992;2023-02-15T11:45:22;12.30;97.40
14409;DHT22;7289;50.706;4.992;2023-02-15T11:47:53;12.20;96.90
14409;DHT22;7289;50.706;4.992;2023-02-15T11:50:24;12.40;96.70
14409;DHT22;7289;50.706;4.992;2023-02-15T11:52:58;12.40;96.20
14409;DHT22;7289;50.706;4.992;2023-02-15T11:55:27;12.60;96.50
14409;DHT22;7289;50.706;4.992;2023-02-15T11:58:00;12.80;96.30
14409;DHT22;7289;50.706;4.992;2023-02-15T12:00:34;13.00;96.00
14409;DHT22;7289;50.706;4.992;2023-02-15T12:03:14;13.00;95.80
14409;DHT22;7289;50.706;4.992;2023-02-15T12:05:48;13.20;95.60
14409;DHT22;7289;50.706;4.992;2023-02-15T12:08:19;13.30;94.90
14409;DHT22;7289;50.706;4.992;2023-02-15T12:11:00;13.20;95.00
14409;DHT22;7289;50.706;4.992;2023-02-15T12:13:30;13.40;95.30
14409;DHT22;7289;50.706;4.992;2023-02-15T12:16:05;13.40;94.90
14409;DHT22;7289;50.706;4.992;2023-02-15T12:18:39;13.50;95.40
14409;DHT22;7289;50.706;4.992;2023-02-15T12:21:11;13.60;94.80
14409;DHT22;7289;50.706;4.992;2023-02-15T12:23:46;13.80;94.90
14409;DHT22;7289;50.706;4.992;2023-02-15T12:26:24;13.80;94.30
14409;DHT22;7289;50.706;4.992;2023-02-15T12:28:55;13.80;94.00
14409;DHT22;7289;50.706;4.992;2023-02-15T12:31:33;13.90;94.90
14409;DHT22;7289;50.706;4.992;2023-02-15T12:34:11;13.80;94.90
14409;DHT22;7289;50.706;4.992;2023-02-15T12:36:44;13.80;94.70
14409;DHT22;7289;50.706;4.992;2023-02-15T12:39:19;13.90;95.10
14409;DHT22;7289;50.706;4.992;2023-02-15T12:42:04;14.10;94.50
14409;DHT22;7289;50.706;4.992;2023-02-15T12:44:33;14.30;94.70
14409;DHT22;7289;50.706;4.992;2023-02-15T12:47:04;14.50;94.00
14409;DHT22;7289;50.706;4.992;2023-02-15T12:49:34;14.70;94.60
14409;DHT22;7289;50.706;4.992;2023-02-15T12:52:06;14.80;93.80
14409;DHT22;7289;50.706;4.992;2023-02-15T12:54:37;14.90;94.30
14409;DHT22;7289;50.706;4.992;2023-02-15T12:57:31;15.00;93.90
14409;DHT22;7289;50.706;4.992;2023-02-15T13:00:01;15.10;93.50
14409;DHT22;7289;50.706;4.992;2023-02-15T13:02:36;15.10;93.20
14409;DHT22;7289;50.706;4.992;2023-02-15T13:05:18;15.10;93.90
14409;DHT22;7289;50.706;4.992;2023-02-15T13:07:51;14.90;94.00
14409;DHT22;7289;50.706;4.992;2023-02-15T13:10:23;14.90;93.80
14409;DHT22;7289;50.706;4.992;2023-02-15T13:12:53;14.80;93.50
14409;DHT22;7289;50.706;4.992;2023-02-15T13:15:25;14.90;94.30
14409;DHT22;7289;50.706;4.992;2023-02-15T13:17:55;14.90;93.50
14409;DHT22;7289;50.706;4.992;2023-02-15T13:20:24;15.00;93.90
14409;DHT22;7289;50.706;4.992;2023-02-15T13:22:59;15.00;93.70
14409;DHT22;7289;50.706;4.992;2023-02-15T13:25:35;15.10;93.90
14409;DHT22;7289;50.706;4.992;2023-02-15T13:28:12;15.10;93.80
14409;DHT22;7289;50.706;4.992;2023-02-15T13:30:44;15.00;94.00
14409;DHT22;7289;50.706;4.992;2023-02-15T13:33:17;15.10;93.40
14409;DHT22;7289;50.706;4.992;2023-02-15T13:35:54;15.00;93.00
14409;DHT22;7289;50.706;4.992;2023-02-15T13:38:40;15.00;93.90
14409;DHT22;7289;50.706;4.992;2023-02-15T13:41:13;15.00;93.60
14409;DHT22;7289;50.706;4.992;2023-02-15T13:43:50;15.00;93.70
14409;DHT22;7289;50.706;4.992;2023-02-15T13:46:34;15.10;94.00
14409;DHT22;7289;50.706;4.992;2023-02-15T13:49:14;15.20;93.50
14409;DHT22;7289;50.706;4.992;2023-02-15T13:51:53;15.10;92.90
14409;DHT22;7289;50.706;4.992;2023-02-15T13:54:49;15.00;92.90
14409;DHT22;7289;50.706;4.992;2023-02-15T14:00:27;14.90;93.30
14409;DHT22;7289;50.706;4.992;2023-02-15T14:03:21;14.90;93.10
14409;DHT22;7289;50.706;4.992;2023-02-15T14:06:03;14.90;93.10
14409;DHT22;7289;50.706;4.992;2023-02-15T14:08:49;14.90;93.50
14409;DHT22;7289;50.706;4.992;2023-02-15T14:11:27;15.00;93.00
14409;DHT22;7289;50.706;4.992;2023-02-15T14:14:34;15.00;93.00
14409;DHT22;7289;50.706;4.992;2023-02-15T14:17:15;15.10;92.60
14409;DHT22;7289;50.706;4.992;2023-02-15T14:19:47;15.00;93.00
14409;DHT22;7289;50.706;4.992;2023-02-15T14:22:24;15.10;92.90
14409;DHT22;7289;50.706;4.992;2023-02-15T14:25:03;15.10;93.40
14409;DHT22;7289;50.706;4.992;2023-02-15T14:27:52;15.20;93.20
14409;DHT22;7289;50.706;4.992;2023-02-15T14:30:26;15.20;92.90
14409;DHT22;7289;50.706;4.992;2023-02-15T14:32:59;15.10;92.40
14409;DHT22;7289;50.706;4.992;2023-02-15T14:35:30;15.00;92.70
14409;DHT22;7289;50.706;4.992;2023-02-15T14:38:04;14.80;93.30
14409;DHT22;7289;50.706;4.992;2023-02-15T14:40:42;14.70;93.20
14409;DHT22;7289;50.706;4.992;2023-02-15T14:43:44;14.80;93.70
14409;DHT22;7289;50.706;4.992;2023-02-15T14:46:22;14.80;93.90
14409;DHT22;7289;50.706;4.992;2023-02-15T14:48:54;14.60;94.10
14409;DHT22;7289;50.706;4.992;2023-02-15T14:51:53;14.60;94.50
14409;DHT22;7289;50.706;4.992;2023-02-15T14:54:58;14.50;94.60
14409;DHT22;7289;50.706;4.992;2023-02-15T14:57:27;14.40;94.60
14409;DHT22;7289;50.706;4.992;2023-02-15T15:02:53;14.40;95.20
14409;DHT22;7289;50.706;4.992;2023-02-15T15:05:24;14.30;95.20
14409;DHT22;7289;50.706;4.992;2023-02-15T15:07:55;14.40;95.10
14409;DHT22;7289;50.706;4.992;2023-02-15T15:10:48;14.40;95.40
14409;DHT22;7289;50.706;4.992;2023-02-15T15:16:48;14.40;96.00
14409;DHT22;7289;50.706;4.992;2023-02-15T15:22:35;14.30;95.70
14409;DHT22;7289;50.706;4.992;2023-02-15T15:25:09;14.30;95.70
14409;DHT22;7289;50.706;4.992;2023-02-15T15:27:47;14.30;95.90
14409;DHT22;7289;50.706;4.992;2023-02-15T15:49:41;13.80;96.90
14409;DHT22;7289;50.706;4.992;2023-02-15T15:52:14;13.70;97.20
14409;DHT22;7289;50.706;4.992;2023-02-15T15:54:44;13.60;97.40
14409;DHT22;7289;50.706;4.992;2023-02-15T15:57:19;13.50;97.60
14409;DHT22;7289;50.706;4.992;2023-02-15T15:59:49;13.40;97.80
14409;DHT22;7289;50.706;4.992;2023-02-15T16:02:18;13.30;98.00
14409;DHT22;7289;50.706;4.992;2023-02-15T16:04:47;13.20;98.20
14409;DHT22;7289;50.706;4.992;2023-02-15T16:07:25;13.10;98.40
14409;DHT22;7289;50.706;4.992;2023-02-15T16:09:55;13.00;98.60
14409;DHT22;7289;50.706;4.992;2023-02-15T16:12:25;12.80;98.80
14409;DHT22;7289;50.706;4.992;2023-02-15T16:14:55;12.80;98.90
14409;DHT22;7289;50.706;4.992;2023-02-15T16:17:25;12.60;99.00
14409;DHT22;7289;50.706;4.992;2023-02-15T16:20:03;12.60;99.30
14409;DHT22;7289;50.706;4.992;2023-02-15T16:22:33;12.40;99.50
14409;DHT22;7289;50.706;4.992;2023-02-15T16:25:24;12.30;99.60
14409;DHT22;7289;50.706;4.992;2023-02-15T16:27:56;12.10;99.70
14409;DHT22;7289;50.706;4.992;2023-02-15T16:30:28;12.00;99.60
14409;DHT22;7289;50.706;4.992;2023-02-15T16:33:05;11.80;99.70
14409;DHT22;7289;50.706;4.992;2023-02-15T16:35:34;11.70;99.90
14409;DHT22;7289;50.706;4.992;2023-02-15T16:38:04;11.60;99.90
14409;DHT22;7289;50.706;4.992;2023-02-15T16:40:47;11.60;99.90
14409;DHT22;7289;50.706;4.992;2023-02-15T16:43:23;11.40;99.90
14409;DHT22;7289;50.706;4.992;2023-02-15T16:46:03;11.30;99.90
14409;DHT22;7289;50.706;4.992;2023-02-15T16:48:33;11.20;99.90
14409;DHT22;7289;50.706;4.992;2023-02-15T16:51:03;11.00;99.90
14409;DHT22;7289;50.706;4.992;2023-02-15T16:53:33;10.80;99.90
14409;DHT22;7289;50.706;4.992;2023-02-15T16:56:04;10.70;99.90
14409;DHT22;7289;50.706;4.992;2023-02-15T16:58:37;10.60;99.90
14409;DHT22;7289;50.706;4.992;2023-02-15T17:01:07;10.40;99.90
14409;DHT22;7289;50.706;4.992;2023-02-15T17:03:37;10.40;99.90
14409;DHT22;7289;50.706;4.992;2023-02-15T17:06:21;10.30;99.90
14409;DHT22;7289;50.706;4.992;2023-02-15T17:08:51;10.20;99.90
14409;DHT22;7289;50.706;4.992;2023-02-15T17:11:32;10.10;99.90
14409;DHT22;7289;50.706;4.992;2023-02-15T17:16:53;9.90;99.90
14409;DHT22;7289;50.706;4.992;2023-02-15T17:19:25;9.70;99.90